sensor_id;sensor_type;location;lat;lon;timestamp;temperature;humidity
44219;DHT22;29889;52.034;5.570;2022-09-12T00:00:28;20.40;99.90
44219;DHT22;29889;52.034;5.570;2022-09-12T00:01:09;20.40;99.90
44219;DHT22;29889;52.034;5.570;2022-09-12T00:01:40;20.40;99.90
44219;DHT22;29889;52.034;5.570;2022-09-12T00:02:11;20.40;99.90
44219;DHT22;29889;52.034;5.570;2022-09-12T00:02:42;20.40;99.90
44219;DHT22;29889;52.034;5.570;2022-09-12T00:03:12;20.40;99.90
44219;DHT22;29889;52.034;5.570;2022-09-12T00:03:43;20.40;99.90
44219;DHT22;29889;52.034;5.570;2022-09-12T00:04:13;20.40;99.90
44219;DHT22;29889;52.034;5.570;2022-09-12T00:04:44;20.40;99.90
44219;DHT22;29889;52.034;5.570;2022-09-12T00:05:15;20.40;99.90
44219;DHT22;29889;52.034;5.570;2022-09-12T00:05:46;20.40;99.90
44219;DHT22;29889;52.034;5.570;2022-09-12T00:06:26;20.40;99.90
44219;DHT22;29889;52.034;5.570;2022-09-12T00:06:56;20.40;99.90
44219;DHT22;29889;52.034;5.570;2022-09-12T00:07:27;20.40;99.90
44219;DHT22;29889;52.034;5.570;2022-09-12T00:07:58;20.30;99.90
44219;DHT22;29889;52.034;5.570;2022-09-12T00:08:29;20.40;99.90
44219;DHT22;29889;52.034;5.570;2022-09-12T00:09:03;20.30;99.90
44219;DHT22;29889;52.034;5.570;2022-09-12T00:09:34;20.30;99.90
44219;DHT22;29889;52.034;5.570;2022-09-12T00:10:05;20.30;99.90
44219;DHT22;29889;52.034;5.570;2022-09-12T00:10:39;20.30;99.90
44219;DHT22;29889;52.034;5.570;2022-09-12T00:11:11;20.30;99.90
44219;DHT22;29889;52.034;5.570;2022-09-12T00:11:44;20.30;99.90
44219;DHT22;29889;52.034;5.570;2022-09-12T00:12:14;20.30;99.90
44219;DHT22;29889;52.034;5.570;2022-09-12T00:12:45;20.30;99.90
44219;DHT22;29889;52.034;5.570;2022-09-12T00:13:16;20.30;99.90
44219;DHT22;29889;52.034;5.570;2022-09-12T00:13:46;20.30;99.90
44219;DHT22;29889;52.034;5.570;2022-09-12T00:14:18;20.30;99.90
44219;DHT22;29889;52.034;5.570;2022-09-12T00:14:48;20.30;99.90
44219;DHT22;29889;52.034;5.570;2022-09-12T00:15:19;20.30;99.90
44219;DHT22;29889;52.034;5.570;2022-09-12T00:15:49;20.30;99.90
44219;DHT22;29889;52.034;5.570;2022-09-12T00:16:22;20.30;99.90
44219;DHT22;29889;52.034;5.570;2022-09-12T00:16:56;20.30;99.90
44219;DHT22;29889;52.034;5.570;2022-09-12T00:17:27;20.30;99.90
44219;DHT22;29889;52.034;5.570;2022-09-12T00:17:58;20.30;99.90
44219;DHT22;29889;52.034;5.570;2022-09-12T00:18:29;20.30;99.90
44219;DHT22;29889;52.034;5.570;2022-09-12T00:19:02;20.20;99.90
44219;DHT22;29889;52.034;5.570;2022-09-12T00:19:32;20.20;99.90
44219;DHT22;29889;52.034;5.570;2022-09-12T00:20:05;20.20;99.90
44219;DHT22;29889;52.034;5.570;2022-09-12T00:20:44;20.20;99.90
44219;DHT22;29889;52.034;5.570;2022-09-12T00:21:16;20.20;99.90
44219;DHT22;29889;52.034;5.570;2022-09-12T00:21:47;20.20;99.90
44219;DHT22;29889;52.034;5.570;2022-09-12T00:22:17;20.20;99.90
44219;DHT22;29889;52.034;5.570;2022-09-12T00:22:48;20.20;99.90
44219;DHT22;29889;52.034;5.570;2022-09-12T00:23:18;20.20;99.90
44219;DHT22;29889;52.034;5.570;2022-09-12T00:23:50;20.20;99.90
44219;DHT22;29889;52.034;5.570;2022-09-12T00:24:21;20.20;99.90
44219;DHT22;29889;52.034;5.570;2022-09-12T00:24:52;20.20;99.90
44219;DHT22;29889;52.034;5.570;2022-09-12T00:25:22;20.20;99.90
44219;DHT22;29889;52.034;5.570;2022-09-12T00:25:53;20.20;99.90
44219;DHT22;29889;52.034;5.570;2022-09-12T00:26:24;20.20;99.90
44219;DHT22;29889;52.034;5.570;2022-09-12T00:26:54;20.20;99.90
44219;DHT22;29889;52.034;5.570;2022-09-12T00:27:26;20.10;99.90
44219;DHT22;29889;52.034;5.570;2022-09-12T00:27:57;20.10;99.90
44219;DHT22;29889;52.034;5.570;2022-09-12T00:28:28;20.10;99.90
44219;DHT22;29889;52.034;5.570;2022-09-12T00:28:58;20.10;99.90
44219;DHT22;29889;52.034;5.570;2022-09-12T00:30:01;20.10;99.90
44219;DHT22;29889;52.034;5.570;2022-09-12T00:30:32;20.10;99.90
44219;DHT22;29889;52.034;5.570;2022-09-12T00:31:04;20.10;99.90
44219;DHT22;29889;52.034;5.570;2022-09-12T00:31:35;20.10;99.90
44219;DHT22;29889;52.034;5.570;2022-09-12T00:32:06;20.10;99.90
44219;DHT22;29889;52.034;5.570;2022-09-12T00:32:36;20.10;99.90
44219;DHT22;29889;52.034;5.570;2022-09-12T00:33:07;20.10;99.90
44219;DHT22;29889;52.034;5.570;2022-09-12T00:33:38;20.10;99.90
44219;DHT22;29889;52.034;5.570;2022-09-12T00:34:09;20.10;99.90
44219;DHT22;29889;52.034;5.570;2022-09-12T00:34:40;20.10;99.90
44219;DHT22;29889;52.034;5.570;2022-09-12T00:35:11;20.10;99.90
44219;DHT22;29889;52.034;5.570;2022-09-12T00:35:44;20.10;99.90
44219;DHT22;29889;52.034;5.570;2022-09-12T00:36:21;20.10;99.90
44219;DHT22;29889;52.034;5.570;2022-09-12T00:36:52;20.10;99.90
44219;DHT22;29889;52.034;5.570;2022-09-12T00:37:23;20.10;99.90
44219;DHT22;29889;52.034;5.570;2022-09-12T00:37:53;20.10;99.90
44219;DHT22;29889;52.034;5.570;2022-09-12T00:38:24;20.10;99.90
44219;DHT22;29889;52.034;5.570;2022-09-12T00:38:55;20.10;99.90
44219;DHT22;29889;52.034;5.570;2022-09-12T00:39:26;20.10;99.90
44219;DHT22;29889;52.034;5.570;2022-09-12T00:39:56;20.10;99.90
44219;DHT22;29889;52.034;5.570;2022-09-12T00:40:27;20.10;99.90
44219;DHT22;29889;52.034;5.570;2022-09-12T00:40:57;20.10;99.90
44219;DHT22;29889;52.034;5.570;2022-09-12T00:41:34;20.10;99.90
44219;DHT22;29889;52.034;5.570;2022-09-12T00:42:05;20.10;99.90
44219;DHT22;29889;52.034;5.570;2022-09-12T00:42:36;20.10;99.90
44219;DHT22;29889;52.034;5.570;2022-09-12T00:43:12;20.10;99.90
44219;DHT22;29889;52.034;5.570;2022-09-12T00:43:46;20.10;99.90
44219;DHT22;29889;52.034;5.570;2022-09-12T00:44:51;20.10;99.90
44219;DHT22;29889;52.034;5.570;2022-09-12T00:45:26;20.10;99.90
44219;DHT22;29889;52.034;5.570;2022-09-12T00:46:00;20.10;99.90
44219;DHT22;29889;52.034;5.570;2022-09-12T00:46:38;20.10;99.90
44219;DHT22;29889;52.034;5.570;2022-09-12T00:47:21;20.10;99.90
44219;DHT22;29889;52.034;5.570;2022-09-12T00:47:54;20.10;99.90
44219;DHT22;29889;52.034;5.570;2022-09-12T00:48:32;20.10;99.90
44219;DHT22;29889;52.034;5.570;2022-09-12T00:49:13;20.10;99.90
44219;DHT22;29889;52.034;5.570;2022-09-12T00:50:03;20.10;99.90
44219;DHT22;29889;52.034;5.570;2022-09-12T00:50:34;20.10;99.90
44219;DHT22;29889;52.034;5.570;2022-09-12T00:51:05;20.10;99.90
44219;DHT22;29889;52.034;5.570;2022-09-12T00:51:36;20.10;99.90
44219;DHT22;29889;52.034;5.570;2022-09-12T00:52:10;20.10;99.90
44219;DHT22;29889;52.034;5.570;2022-09-12T00:52:51;20.10;99.90
44219;DHT22;29889;52.034;5.570;2022-09-12T00:53:22;20.10;99.90
44219;DHT22;29889;52.034;5.570;2022-09-12T00:53:54;20.10;99.90
44219;DHT22;29889;52.034;5.570;2022-09-12T00:54:29;20.10;99.90
44219;DHT22;29889;52.034;5.570;2022-09-12T00:55:42;20.00;99.90
44219;DHT22;29889;52.034;5.570;2022-09-12T00:56:17;20.00;99.90
44219;DHT22;29889;52.034;5.570;2022-09-12T00:56:49;20.00;99.90
44219;DHT22;29889;52.034;5.570;2022-09-12T00:57:27;20.00;99.90
44219;DHT22;29889;52.034;5.570;2022-09-12T00:58:08;20.00;99.90
44219;DHT22;29889;52.034;5.570;2022-09-12T00:58:44;20.00;99.90
44219;DHT22;29889;52.034;5.570;2022-09-12T00:59:20;20.00;99.90
44219;DHT22;29889;52.034;5.570;2022-09-12T00:59:57;20.00;99.90
44219;DHT22;29889;52.034;5.570;2022-09-12T01:00:28;20.00;99.90
44219;DHT22;29889;52.034;5.570;2022-09-12T01:00:59;20.00;99.90
44219;DHT22;29889;52.034;5.570;2022-09-12T01:01:30;20.00;99.90
44219;DHT22;29889;52.034;5.570;2022-09-12T01:02:00;20.00;99.90
44219;DHT22;29889;52.034;5.570;2022-09-12T01:02:31;20.00;99.90
44219;DHT22;29889;52.034;5.570;2022-09-12T01:03:08;20.00;99.90
44219;DHT22;29889;52.034;5.570;2022-09-12T01:03:39;20.00;99.90
44219;DHT22;29889;52.034;5.570;2022-09-12T01:04:10;19.90;99.90
44219;DHT22;29889;52.034;5.570;2022-09-12T01:04:42;19.90;99.90
44219;DHT22;29889;52.034;5.570;2022-09-12T01:05:14;19.90;99.90
44219;DHT22;29889;52.034;5.570;2022-09-12T01:06:39;19.90;99.90
44219;DHT22;29889;52.034;5.570;2022-09-12T01:07:10;19.90;99.90
44219;DHT22;29889;52.034;5.570;2022-09-12T01:07:42;19.90;99.90
44219;DHT22;29889;52.034;5.570;2022-09-12T01:08:14;19.90;99.90
44219;DHT22;29889;52.034;5.570;2022-09-12T01:08:46;19.90;99.90
44219;DHT22;29889;52.034;5.570;2022-09-12T01:09:21;19.90;99.90
44219;DHT22;29889;52.034;5.570;2022-09-12T01:09:52;19.90;99.90
44219;DHT22;29889;52.034;5.570;2022-09-12T01:10:23;19.90;99.90
44219;DHT22;29889;52.034;5.570;2022-09-12T01:10:55;19.90;99.90
44219;DHT22;29889;52.034;5.570;2022-09-12T01:11:27;19.90;99.90
44219;DHT22;29889;52.034;5.570;2022-09-12T01:11:58;19.90;99.90
44219;DHT22;29889;52.034;5.570;2022-09-12T01:12:31;19.90;99.90
44219;DHT22;29889;52.034;5.570;2022-09-12T01:13:08;19.90;99.90
44219;DHT22;29889;52.034;5.570;2022-09-12T01:13:39;19.90;99.90
44219;DHT22;29889;52.034;5.570;2022-09-12T01:14:10;19.90;99.90
44219;DHT22;29889;52.034;5.570;2022-09-12T01:14:41;19.90;99.90
44219;DHT22;29889;52.034;5.570;2022-09-12T01:15:12;19.90;99.90
44219;DHT22;29889;52.034;5.570;2022-09-12T01:15:42;19.90;99.90
44219;DHT22;29889;52.034;5.570;2022-09-12T01:16:13;19.90;99.90
44219;DHT22;29889;52.034;5.570;2022-09-12T01:16:44;19.90;99.90
44219;DHT22;29889;52.034;5.570;2022-09-12T01:17:15;19.90;99.90
44219;DHT22;29889;52.034;5.570;2022-09-12T01:19:14;19.90;99.90
44219;DHT22;29889;52.034;5.570;2022-09-12T01:21:31;19.90;99.90
44219;DHT22;29889;52.034;5.570;2022-09-12T01:22:10;20.00;99.90
44219;DHT22;29889;52.034;5.570;2022-09-12T01:24:04;19.90;99.90
44219;DHT22;29889;52.034;5.570;2022-09-12T01:29:54;19.90;99.90
44219;DHT22;29889;52.034;5.570;2022-09-12T01:31:18;19.90;99.90
44219;DHT22;29889;52.034;5.570;2022-09-12T01:34:57;19.80;99.90
44219;DHT22;29889;52.034;5.570;2022-09-12T01:37:19;19.80;99.90
44219;DHT22;29889;52.034;5.570;2022-09-12T01:39:02;19.80;99.90
44219;DHT22;29889;52.034;5.570;2022-09-12T01:39:49;19.80;99.90
44219;DHT22;29889;52.034;5.570;2022-09-12T01:40:47;19.80;99.90
44219;DHT22;29889;52.034;5.570;2022-09-12T01:41:50;19.80;99.90
44219;DHT22;29889;52.034;5.570;2022-09-12T01:43:59;19.50;99.90
44219;DHT22;29889;52.034;5.570;2022-09-12T01:44:47;19.70;99.90
44219;DHT22;29889;52.034;5.570;2022-09-12T01:46:08;19.70;99.90
44219;DHT22;29889;52.034;5.570;2022-09-12T01:48:14;19.70;99.90
44219;DHT22;29889;52.034;5.570;2022-09-12T01:50:40;19.70;99.90
44219;DHT22;29889;52.034;5.570;2022-09-12T01:51:59;19.70;99.90
44219;DHT22;29889;52.034;5.570;2022-09-12T01:52:58;19.70;99.90
44219;DHT22;29889;52.034;5.570;2022-09-12T01:53:41;19.60;99.90
44219;DHT22;29889;52.034;5.570;2022-09-12T01:54:19;19.60;99.90
44219;DHT22;29889;52.034;5.570;2022-09-12T01:55:00;19.60;99.90
44219;DHT22;29889;52.034;5.570;2022-09-12T01:55:40;19.60;99.90
44219;DHT22;29889;52.034;5.570;2022-09-12T01:56:26;19.70;99.90
44219;DHT22;29889;52.034;5.570;2022-09-12T01:57:03;19.60;99.90
44219;DHT22;29889;52.034;5.570;2022-09-12T01:58:39;19.70;99.90
44219;DHT22;29889;52.034;5.570;2022-09-12T01:59:33;19.70;99.90
44219;DHT22;29889;52.034;5.570;2022-09-12T02:00:09;19.70;99.90
44219;DHT22;29889;52.034;5.570;2022-09-12T02:01:08;19.70;99.90
44219;DHT22;29889;52.034;5.570;2022-09-12T02:01:42;19.70;99.90
44219;DHT22;29889;52.034;5.570;2022-09-12T02:02:20;19.70;99.90
44219;DHT22;29889;52.034;5.570;2022-09-12T02:02:57;19.70;99.90
44219;DHT22;29889;52.034;5.570;2022-09-12T02:03:38;19.70;99.90
44219;DHT22;29889;52.034;5.570;2022-09-12T02:04:29;19.70;99.90
44219;DHT22;29889;52.034;5.570;2022-09-12T02:05:11;19.70;99.90
44219;DHT22;29889;52.034;5.570;2022-09-12T02:05:47;19.70;99.90
44219;DHT22;29889;52.034;5.570;2022-09-12T02:06:25;19.70;99.90
44219;DHT22;29889;52.034;5.570;2022-09-12T02:07:03;19.70;99.90
44219;DHT22;29889;52.034;5.570;2022-09-12T02:07:45;19.70;99.90
44219;DHT22;29889;52.034;5.570;2022-09-12T02:08:21;19.70;99.90
44219;DHT22;29889;52.034;5.570;2022-09-12T02:09:09;19.70;99.90
44219;DHT22;29889;52.034;5.570;2022-09-12T02:09:54;19.70;99.90
44219;DHT22;29889;52.034;5.570;2022-09-12T02:10:30;19.60;99.90
44219;DHT22;29889;52.034;5.570;2022-09-12T02:11:10;19.60;99.90
44219;DHT22;29889;52.034;5.570;2022-09-12T02:11:42;19.60;99.90
44219;DHT22;29889;52.034;5.570;2022-09-12T02:12:17;19.60;99.90
44219;DHT22;29889;52.034;5.570;2022-09-12T02:13:37;19.60;99.90
44219;DHT22;29889;52.034;5.570;2022-09-12T02:13:48;19.60;99.90
44219;DHT22;29889;52.034;5.570;2022-09-12T02:14:24;19.60;99.90
44219;DHT22;29889;52.034;5.570;2022-09-12T02:15:03;19.60;99.90
44219;DHT22;29889;52.034;5.570;2022-09-12T02:15:43;19.60;99.90
44219;DHT22;29889;52.034;5.570;2022-09-12T02:16:20;19.60;99.90
44219;DHT22;29889;52.034;5.570;2022-09-12T02:16:57;19.60;99.90
44219;DHT22;29889;52.034;5.570;2022-09-12T02:17:37;19.60;99.90
44219;DHT22;29889;52.034;5.570;2022-09-12T02:18:12;19.60;99.90
44219;DHT22;29889;52.034;5.570;2022-09-12T02:18:49;19.60;99.90
44219;DHT22;29889;52.034;5.570;2022-09-12T02:19:23;19.60;99.90
44219;DHT22;29889;52.034;5.570;2022-09-12T02:20:05;19.60;99.90
44219;DHT22;29889;52.034;5.570;2022-09-12T02:20:38;19.60;99.90
44219;DHT22;29889;52.034;5.570;2022-09-12T02:21:10;19.60;99.90
44219;DHT22;29889;52.034;5.570;2022-09-12T02:21:45;19.60;99.90
44219;DHT22;29889;52.034;5.570;2022-09-12T02:22:20;19.60;99.90
44219;DHT22;29889;52.034;5.570;2022-09-12T02:22:53;19.60;99.90
44219;DHT22;29889;52.034;5.570;2022-09-12T02:23:27;19.60;99.90
44219;DHT22;29889;52.034;5.570;2022-09-12T02:24:01;19.50;99.90
44219;DHT22;29889;52.034;5.570;2022-09-12T02:24:36;19.60;99.90
44219;DHT22;29889;52.034;5.570;2022-09-12T02:25:09;19.60;99.90
44219;DHT22;29889;52.034;5.570;2022-09-12T02:25:44;19.50;99.90
44219;DHT22;29889;52.034;5.570;2022-09-12T02:26:20;19.60;99.90
44219;DHT22;29889;52.034;5.570;2022-09-12T02:26:56;19.50;99.90
44219;DHT22;29889;52.034;5.570;2022-09-12T02:27:32;19.50;99.90
44219;DHT22;29889;52.034;5.570;2022-09-12T02:28:13;19.50;99.90
44219;DHT22;29889;52.034;5.570;2022-09-12T02:28:44;19.50;99.90
44219;DHT22;29889;52.034;5.570;2022-09-12T02:29:16;19.50;99.90
44219;DHT22;29889;52.034;5.570;2022-09-12T02:29:47;19.50;99.90
44219;DHT22;29889;52.034;5.570;2022-09-12T02:30:18;19.50;99.90
44219;DHT22;29889;52.034;5.570;2022-09-12T02:30:58;19.50;99.90
44219;DHT22;29889;52.034;5.570;2022-09-12T02:31:58;19.50;99.90
44219;DHT22;29889;52.034;5.570;2022-09-12T02:32:39;19.50;99.90
44219;DHT22;29889;52.034;5.570;2022-09-12T02:33:22;19.50;99.90
44219;DHT22;29889;52.034;5.570;2022-09-12T02:35:45;19.50;99.90
44219;DHT22;29889;52.034;5.570;2022-09-12T02:38:23;19.50;99.90
44219;DHT22;29889;52.034;5.570;2022-09-12T02:38:55;19.50;99.90
44219;DHT22;29889;52.034;5.570;2022-09-12T02:39:25;19.50;99.90
44219;DHT22;29889;52.034;5.570;2022-09-12T02:39:56;19.50;99.90
44219;DHT22;29889;52.034;5.570;2022-09-12T02:40:28;19.50;99.90
44219;DHT22;29889;52.034;5.570;2022-09-12T02:41:00;19.50;99.90
44219;DHT22;29889;52.034;5.570;2022-09-12T02:41:30;19.50;99.90
44219;DHT22;29889;52.034;5.570;2022-09-12T02:42:02;19.50;99.90
44219;DHT22;29889;52.034;5.570;2022-09-12T02:42:34;19.50;99.90
44219;DHT22;29889;52.034;5.570;2022-09-12T02:43:05;19.50;99.90
44219;DHT22;29889;52.034;5.570;2022-09-12T02:43:36;19.50;99.90
44219;DHT22;29889;52.034;5.570;2022-09-12T02:44:07;19.50;99.90
44219;DHT22;29889;52.034;5.570;2022-09-12T02:44:38;19.50;99.90
44219;DHT22;29889;52.034;5.570;2022-09-12T02:45:09;19.50;99.90
44219;DHT22;29889;52.034;5.570;2022-09-12T02:45:41;19.50;99.90
44219;DHT22;29889;52.034;5.570;2022-09-12T02:46:24;19.50;99.90
44219;DHT22;29889;52.034;5.570;2022-09-12T02:47:42;19.50;99.90
44219;DHT22;29889;52.034;5.570;2022-09-12T02:48:08;19.50;99.90
44219;DHT22;29889;52.034;5.570;2022-09-12T02:48:41;19.50;99.90
44219;DHT22;29889;52.034;5.570;2022-09-12T02:49:13;19.50;99.90
44219;DHT22;29889;52.034;5.570;2022-09-12T02:49:44;19.50;99.90
44219;DHT22;29889;52.034;5.570;2022-09-12T02:50:15;19.50;99.90
44219;DHT22;29889;52.034;5.570;2022-09-12T02:50:46;19.50;99.90
44219;DHT22;29889;52.034;5.570;2022-09-12T02:51:17;19.50;99.90
44219;DHT22;29889;52.034;5.570;2022-09-12T02:51:47;19.50;99.90
44219;DHT22;29889;52.034;5.570;2022-09-12T02:52:19;19.40;99.90
44219;DHT22;29889;52.034;5.570;2022-09-12T02:52:50;19.40;99.90
44219;DHT22;29889;52.034;5.570;2022-09-12T02:53:24;19.40;99.90
44219;DHT22;29889;52.034;5.570;2022-09-12T02:53:55;19.40;99.90
44219;DHT22;29889;52.034;5.570;2022-09-12T02:54:27;19.40;99.90
44219;DHT22;29889;52.034;5.570;2022-09-12T02:54:58;19.40;99.90
44219;DHT22;29889;52.034;5.570;2022-09-12T02:55:33;19.40;99.90
44219;DHT22;29889;52.034;5.570;2022-09-12T02:56:19;19.40;99.90
44219;DHT22;29889;52.034;5.570;2022-09-12T02:56:52;19.40;99.90
44219;DHT22;29889;52.034;5.570;2022-09-12T02:57:23;19.40;99.90
44219;DHT22;29889;52.034;5.570;2022-09-12T02:57:54;19.40;99.90
44219;DHT22;29889;52.034;5.570;2022-09-12T02:58:28;19.40;99.90
44219;DHT22;29889;52.034;5.570;2022-09-12T02:59:07;19.40;99.90
44219;DHT22;29889;52.034;5.570;2022-09-12T02:59:39;19.40;99.90
44219;DHT22;29889;52.034;5.570;2022-09-12T03:00:10;19.40;99.90
44219;DHT22;29889;52.034;5.570;2022-09-12T03:02:39;19.30;99.90
44219;DHT22;29889;52.034;5.570;2022-09-12T03:04:05;19.30;99.90
44219;DHT22;29889;52.034;5.570;2022-09-12T03:05:33;19.30;99.90
44219;DHT22;29889;52.034;5.570;2022-09-12T03:07:42;19.30;99.90
44219;DHT22;29889;52.034;5.570;2022-09-12T03:08:55;19.30;99.90
44219;DHT22;29889;52.034;5.570;2022-09-12T03:10:16;19.30;99.90
44219;DHT22;29889;52.034;5.570;2022-09-12T03:12:19;19.30;99.90
44219;DHT22;29889;52.034;5.570;2022-09-12T03:13:21;19.30;99.90
44219;DHT22;29889;52.034;5.570;2022-09-12T03:16:02;19.30;99.90
44219;DHT22;29889;52.034;5.570;2022-09-12T03:16:43;19.30;99.90
44219;DHT22;29889;52.034;5.570;2022-09-12T03:18:03;19.30;99.90
44219;DHT22;29889;52.034;5.570;2022-09-12T03:18:57;19.30;99.90
44219;DHT22;29889;52.034;5.570;2022-09-12T03:19:51;19.30;99.90
44219;DHT22;29889;52.034;5.570;2022-09-12T03:21:13;19.30;99.90
44219;DHT22;29889;52.034;5.570;2022-09-12T03:22:35;19.30;99.90
44219;DHT22;29889;52.034;5.570;2022-09-12T03:23:33;19.30;99.90
44219;DHT22;29889;52.034;5.570;2022-09-12T03:24:26;19.30;99.90
44219;DHT22;29889;52.034;5.570;2022-09-12T03:25:26;19.30;99.90
44219;DHT22;29889;52.034;5.570;2022-09-12T03:26:06;19.30;99.90
44219;DHT22;29889;52.034;5.570;2022-09-12T03:26:46;19.30;99.90
44219;DHT22;29889;52.034;5.570;2022-09-12T03:27:24;19.30;99.90
44219;DHT22;29889;52.034;5.570;2022-09-12T03:28:08;19.30;99.90
44219;DHT22;29889;52.034;5.570;2022-09-12T03:28:42;19.30;99.90
44219;DHT22;29889;52.034;5.570;2022-09-12T03:29:15;19.30;99.90
44219;DHT22;29889;52.034;5.570;2022-09-12T03:29:47;19.30;99.90
44219;DHT22;29889;52.034;5.570;2022-09-12T03:30:20;19.30;99.90
44219;DHT22;29889;52.034;5.570;2022-09-12T03:30:50;19.30;99.90
44219;DHT22;29889;52.034;5.570;2022-09-12T03:31:22;19.30;99.90
44219;DHT22;29889;52.034;5.570;2022-09-12T03:31:55;19.30;99.90
44219;DHT22;29889;52.034;5.570;2022-09-12T03:32:43;19.30;99.90
44219;DHT22;29889;52.034;5.570;2022-09-12T03:33:16;19.20;99.90
44219;DHT22;29889;52.034;5.570;2022-09-12T03:33:47;19.20;99.90
44219;DHT22;29889;52.034;5.570;2022-09-12T03:34:19;19.20;99.90
44219;DHT22;29889;52.034;5.570;2022-09-12T03:34:50;19.20;99.90
44219;DHT22;29889;52.034;5.570;2022-09-12T03:35:23;19.20;99.90
44219;DHT22;29889;52.034;5.570;2022-09-12T03:35:54;19.20;99.90
44219;DHT22;29889;52.034;5.570;2022-09-12T03:36:28;19.20;99.90
44219;DHT22;29889;52.034;5.570;2022-09-12T03:36:59;19.20;99.90
44219;DHT22;29889;52.034;5.570;2022-09-12T03:37:29;19.20;99.90
44219;DHT22;29889;52.034;5.570;2022-09-12T03:38:00;19.20;99.90
44219;DHT22;29889;52.034;5.570;2022-09-12T03:38:30;19.20;99.90
44219;DHT22;29889;52.034;5.570;2022-09-12T03:39:01;19.20;99.90
44219;DHT22;29889;52.034;5.570;2022-09-12T03:39:31;19.20;99.90
44219;DHT22;29889;52.034;5.570;2022-09-12T03:40:06;19.20;99.90
44219;DHT22;29889;52.034;5.570;2022-09-12T03:40:38;19.20;99.90
44219;DHT22;29889;52.034;5.570;2022-09-12T03:41:08;19.20;99.90
44219;DHT22;29889;52.034;5.570;2022-09-12T03:41:39;19.20;99.90
44219;DHT22;29889;52.034;5.570;2022-09-12T03:42:10;19.20;99.90
44219;DHT22;29889;52.034;5.570;2022-09-12T03:42:40;19.20;99.90
44219;DHT22;29889;52.034;5.570;2022-09-12T03:43:11;19.20;99.90
44219;DHT22;29889;52.034;5.570;2022-09-12T03:43:42;19.20;99.90
44219;DHT22;29889;52.034;5.570;2022-09-12T03:44:13;19.20;99.90
44219;DHT22;29889;52.034;5.570;2022-09-12T03:44:43;19.20;99.90
44219;DHT22;29889;52.034;5.570;2022-09-12T03:45:14;19.20;99.90
44219;DHT22;29889;52.034;5.570;2022-09-12T03:45:49;19.20;99.90
44219;DHT22;29889;52.034;5.570;2022-09-12T03:46:21;19.20;99.90
44219;DHT22;29889;52.034;5.570;2022-09-12T03:46:52;19.20;99.90
44219;DHT22;29889;52.034;5.570;2022-09-12T03:47:23;19.10;99.90
44219;DHT22;29889;52.034;5.570;2022-09-12T03:47:54;19.10;99.90
44219;DHT22;29889;52.034;5.570;2022-09-12T03:48:25;19.10;99.90
44219;DHT22;29889;52.034;5.570;2022-09-12T03:48:55;19.10;99.90
44219;DHT22;29889;52.034;5.570;2022-09-12T03:49:26;19.10;99.90
44219;DHT22;29889;52.034;5.570;2022-09-12T03:49:56;19.10;99.90
44219;DHT22;29889;52.034;5.570;2022-09-12T03:50:27;19.10;99.90
44219;DHT22;29889;52.034;5.570;2022-09-12T03:51:06;19.10;99.90
44219;DHT22;29889;52.034;5.570;2022-09-12T03:51:38;19.10;99.90
44219;DHT22;29889;52.034;5.570;2022-09-12T03:52:08;19.10;99.90
44219;DHT22;29889;52.034;5.570;2022-09-12T03:52:39;19.10;99.90
44219;DHT22;29889;52.034;5.570;2022-09-12T03:53:09;19.10;99.90
44219;DHT22;29889;52.034;5.570;2022-09-12T03:53:40;19.10;99.90
44219;DHT22;29889;52.034;5.570;2022-09-12T03:54:11;19.10;99.90
44219;DHT22;29889;52.034;5.570;2022-09-12T03:54:41;19.10;99.90
44219;DHT22;29889;52.034;5.570;2022-09-12T03:55:12;19.10;99.90
44219;DHT22;29889;52.034;5.570;2022-09-12T03:55:42;19.10;99.90
44219;DHT22;29889;52.034;5.570;2022-09-12T03:56:13;19.10;99.90
44219;DHT22;29889;52.034;5.570;2022-09-12T03:56:44;19.10;99.90
44219;DHT22;29889;52.034;5.570;2022-09-12T03:57:14;19.10;99.90
44219;DHT22;29889;52.034;5.570;2022-09-12T03:57:45;19.10;99.90
44219;DHT22;29889;52.034;5.570;2022-09-12T03:58:15;19.20;99.90
44219;DHT22;29889;52.034;5.570;2022-09-12T03:58:46;19.20;99.90
44219;DHT22;29889;52.034;5.570;2022-09-12T03:59:17;19.20;99.90
44219;DHT22;29889;52.034;5.570;2022-09-12T03:59:48;19.20;99.90
44219;DHT22;29889;52.034;5.570;2022-09-12T04:00:22;19.20;99.90
44219;DHT22;29889;52.034;5.570;2022-09-12T04:00:53;19.20;99.90
44219;DHT22;29889;52.034;5.570;2022-09-12T04:01:23;19.20;99.90
44219;DHT22;29889;52.034;5.570;2022-09-12T04:01:54;19.20;99.90
44219;DHT22;29889;52.034;5.570;2022-09-12T04:02:24;19.20;99.90
44219;DHT22;29889;52.034;5.570;2022-09-12T04:02:56;19.20;99.90
44219;DHT22;29889;52.034;5.570;2022-09-12T04:03:26;19.20;99.90
44219;DHT22;29889;52.034;5.570;2022-09-12T04:03:57;19.20;99.90
44219;DHT22;29889;52.034;5.570;2022-09-12T04:04:28;19.20;99.90
44219;DHT22;29889;52.034;5.570;2022-09-12T04:04:58;19.20;99.90
44219;DHT22;29889;52.034;5.570;2022-09-12T04:05:29;19.20;99.90
44219;DHT22;29889;52.034;5.570;2022-09-12T04:05:59;19.20;99.90
44219;DHT22;29889;52.034;5.570;2022-09-12T04:06:30;19.20;99.90
44219;DHT22;29889;52.034;5.570;2022-09-12T04:07:01;19.20;99.90
44219;DHT22;29889;52.034;5.570;2022-09-12T04:07:31;19.10;99.90
44219;DHT22;29889;52.034;5.570;2022-09-12T04:08:02;19.10;99.90
44219;DHT22;29889;52.034;5.570;2022-09-12T04:08:33;19.10;99.90
44219;DHT22;29889;52.034;5.570;2022-09-12T04:09:04;19.10;99.90
44219;DHT22;29889;52.034;5.570;2022-09-12T04:09:34;19.10;99.90
44219;DHT22;29889;52.034;5.570;2022-09-12T04:10:05;19.10;99.90
44219;DHT22;29889;52.034;5.570;2022-09-12T04:10:36;19.10;99.90
44219;DHT22;29889;52.034;5.570;2022-09-12T04:11:12;19.10;99.90
44219;DHT22;29889;52.034;5.570;2022-09-12T04:11:43;19.10;99.90
44219;DHT22;29889;52.034;5.570;2022-09-12T04:12:13;19.10;99.90
44219;DHT22;29889;52.034;5.570;2022-09-12T04:12:44;19.10;99.90
44219;DHT22;29889;52.034;5.570;2022-09-12T04:13:15;19.10;99.90
44219;DHT22;29889;52.034;5.570;2022-09-12T04:13:46;19.10;99.90
44219;DHT22;29889;52.034;5.570;2022-09-12T04:14:17;19.10;99.90
44219;DHT22;29889;52.034;5.570;2022-09-12T04:14:48;19.10;99.90
44219;DHT22;29889;52.034;5.570;2022-09-12T04:15:19;19.10;99.90
44219;DHT22;29889;52.034;5.570;2022-09-12T04:15:58;19.10;99.90
44219;DHT22;29889;52.034;5.570;2022-09-12T04:16:29;19.10;99.90
44219;DHT22;29889;52.034;5.570;2022-09-12T04:17:00;19.10;99.90
44219;DHT22;29889;52.034;5.570;2022-09-12T04:17:30;19.10;99.90
44219;DHT22;29889;52.034;5.570;2022-09-12T04:18:01;19.10;99.90
44219;DHT22;29889;52.034;5.570;2022-09-12T04:18:32;19.10;99.90
44219;DHT22;29889;52.034;5.570;2022-09-12T04:19:02;19.10;99.90
44219;DHT22;29889;52.034;5.570;2022-09-12T04:19:33;19.10;99.90